createdAt,value
2023-03-18T00:00:11.471Z,7.20
2023-03-18T00:02:40.385Z,6.55
2023-03-18T00:05:08.743Z,6.57
2023-03-18T00:07:36.440Z,6.90
2023-03-18T00:10:05.045Z,6.32
2023-03-18T00:12:33.144Z,6.18
2023-03-18T00:15:01.015Z,7.60
2023-03-18T00:17:27.586Z,6.72
2023-03-18T00:19:54.719Z,7.40
2023-03-18T00:22:21.718Z,7.03
2023-03-18T00:24:49.022Z,6.25
2023-03-18T00:27:15.913Z,6.55
2023-03-18T00:29:42.833Z,6.80
2023-03-18T00:32:09.902Z,5.85
2023-03-18T00:34:36.410Z,6.03
2023-03-18T00:37:03.664Z,6.75
2023-03-18T00:39:32.952Z,7.50
2023-03-18T00:42:01.990Z,5.75
2023-03-18T00:44:28.780Z,6.25
2023-03-18T00:46:55.588Z,6.63
2023-03-18T00:49:22.044Z,5.80
2023-03-18T00:51:48.486Z,5.93
2023-03-18T00:54:18.570Z,7.03
2023-03-18T00:56:45.492Z,6.13
2023-03-18T00:59:11.960Z,6.15
2023-03-18T01:01:39.074Z,6.32
2023-03-18T01:04:07.216Z,6.18
2023-03-18T01:06:37.451Z,6.55
2023-03-18T01:09:09.055Z,6.07
2023-03-18T01:11:35.537Z,6.20
2023-03-18T01:14:02.233Z,6.63
2023-03-18T01:16:29.976Z,6.85
2023-03-18T01:18:57.310Z,6.10
2023-03-18T01:21:24.289Z,6.60
2023-03-18T01:23:50.772Z,6.07
2023-03-18T01:26:17.439Z,5.90
2023-03-18T01:28:44.161Z,5.72
2023-03-18T01:31:12.568Z,6.30
2023-03-18T01:33:40.234Z,6.35
2023-03-18T01:36:08.132Z,6.20
2023-03-18T01:38:34.666Z,5.90
2023-03-18T01:41:01.846Z,6.03
2023-03-18T01:43:34.434Z,5.55
2023-03-18T01:46:02.881Z,5.68
2023-03-18T01:48:31.629Z,6.03
2023-03-18T01:51:05.857Z,5.68
2023-03-18T01:53:39.052Z,5.88
2023-03-18T01:56:06.812Z,5.63
2023-03-18T01:58:41.917Z,5.65
2023-03-18T02:01:26.327Z,6.18
2023-03-18T02:03:54.113Z,5.95
2023-03-18T02:10:13.379Z,6.05
2023-03-18T02:12:45.569Z,5.05
2023-03-18T02:15:16.494Z,6.30
2023-03-18T02:17:49.373Z,5.72
2023-03-18T02:20:28.393Z,5.40
2023-03-18T02:23:30.500Z,5.82
2023-03-18T02:26:08.360Z,5.78
2023-03-18T02:28:37.526Z,6.00
2023-03-18T02:31:09.570Z,5.80
2023-03-18T02:33:39.178Z,5.78
2023-03-18T02:36:11.032Z,6.00
2023-03-18T02:38:42.211Z,5.85
2023-03-18T02:41:18.237Z,5.93
2023-03-18T02:43:45.486Z,6.50
2023-03-18T02:46:28.814Z,5.50
2023-03-18T02:48:56.479Z,6.45
2023-03-18T02:51:23.601Z,5.57
2023-03-18T02:53:50.799Z,5.28
2023-03-18T02:56:17.576Z,5.75
2023-03-18T02:58:44.710Z,5.78
2023-03-18T03:01:11.671Z,5.95
2023-03-18T03:03:39.006Z,5.82
2023-03-18T03:06:06.340Z,6.30
2023-03-18T03:08:32.815Z,5.97
2023-03-18T03:10:59.421Z,6.03
2023-03-18T03:13:25.934Z,5.72
2023-03-18T03:15:52.489Z,6.57
2023-03-18T03:18:19.038Z,5.72
2023-03-18T03:20:45.793Z,5.93
2023-03-18T03:23:14.482Z,4.97
2023-03-18T03:25:42.073Z,5.43
2023-03-18T03:28:09.769Z,6.00
2023-03-18T03:30:36.793Z,6.45
2023-03-18T03:33:04.313Z,5.07
2023-03-18T03:35:31.580Z,5.88
2023-03-18T03:37:58.180Z,6.40
2023-03-18T03:40:26.023Z,5.82
2023-03-18T03:42:52.776Z,5.63
2023-03-18T03:45:20.140Z,5.85
2023-03-18T03:47:47.132Z,5.22
2023-03-18T03:50:15.863Z,5.85
2023-03-18T03:52:43.642Z,5.10
2023-03-18T03:55:13.308Z,4.97
2023-03-18T03:57:41.889Z,5.43
2023-03-18T04:00:14.432Z,5.53
2023-03-18T04:02:43.475Z,5.47
2023-03-18T04:05:11.422Z,5.65
2023-03-18T04:07:38.826Z,6.45
2023-03-18T04:10:06.235Z,5.72
2023-03-18T04:12:32.642Z,5.95
2023-03-18T04:14:59.142Z,5.60
2023-03-18T04:17:25.640Z,5.10
2023-03-18T04:19:52.257Z,6.80
2023-03-18T04:22:18.773Z,5.68
2023-03-18T04:24:45.692Z,5.43
2023-03-18T04:27:12.757Z,5.40
2023-03-18T04:29:39.742Z,5.53
2023-03-18T04:32:06.230Z,5.20
2023-03-18T04:34:32.769Z,5.53
2023-03-18T04:36:59.287Z,5.47
2023-03-18T04:39:25.884Z,6.03
2023-03-18T04:41:52.377Z,6.03
2023-03-18T04:44:19.303Z,5.35
2023-03-18T04:46:46.174Z,5.57
2023-03-18T04:49:12.993Z,5.80
2023-03-18T04:51:39.978Z,6.22
2023-03-18T04:54:06.461Z,5.50
2023-03-18T04:56:34.326Z,5.47
2023-03-18T04:59:00.763Z,5.70
2023-03-18T05:01:27.184Z,5.70
2023-03-18T05:03:53.786Z,4.88
2023-03-18T05:06:23.254Z,6.03
2023-03-18T05:08:50.111Z,5.55
2023-03-18T05:11:17.644Z,5.85
2023-03-18T05:13:44.175Z,5.43
2023-03-18T05:16:10.861Z,5.93
2023-03-18T05:18:38.223Z,6.10
2023-03-18T05:21:07.351Z,5.53
2023-03-18T05:23:34.294Z,5.75
2023-03-18T05:26:00.805Z,5.78
2023-03-18T05:28:27.693Z,5.93
2023-03-18T05:30:54.189Z,6.45
2023-03-18T05:33:23.121Z,6.68
2023-03-18T05:35:49.867Z,6.15
2023-03-18T05:38:16.316Z,5.60
2023-03-18T05:40:43.499Z,5.93
2023-03-18T05:43:10.435Z,5.90
2023-03-18T05:45:40.206Z,5.50
2023-03-18T05:48:07.121Z,5.90
2023-03-18T05:50:37.126Z,6.32
2023-03-18T05:53:04.612Z,6.85
2023-03-18T05:55:32.345Z,6.40
2023-03-18T05:58:00.288Z,5.70
2023-03-18T06:00:31.669Z,6.03
2023-03-18T06:02:59.636Z,5.53
2023-03-18T06:05:26.864Z,5.45
2023-03-18T06:07:54.794Z,6.63
2023-03-18T06:10:22.770Z,7.03
2023-03-18T06:12:50.591Z,6.13
2023-03-18T06:15:18.813Z,6.68
2023-03-18T06:17:45.604Z,5.55
2023-03-18T06:20:14.215Z,6.43
2023-03-18T06:22:40.960Z,6.68
2023-03-18T06:25:08.317Z,6.00
2023-03-18T06:27:35.505Z,7.43
2023-03-18T06:30:04.616Z,7.60
2023-03-18T06:32:31.838Z,6.85
2023-03-18T06:34:58.388Z,6.72
2023-03-18T06:37:24.911Z,6.88
2023-03-18T06:39:51.459Z,6.68
2023-03-18T06:42:17.999Z,6.20
2023-03-18T06:44:50.415Z,6.93
2023-03-18T06:47:21.991Z,6.40
2023-03-18T06:49:49.873Z,7.75
2023-03-18T06:52:18.090Z,7.30
2023-03-18T06:54:45.787Z,7.32
2023-03-18T06:57:13.497Z,6.75
2023-03-18T06:59:40.761Z,6.97
2023-03-18T07:02:08.634Z,7.68
2023-03-18T07:04:35.474Z,6.78
2023-03-18T07:07:02.230Z,6.57
2023-03-18T07:09:29.100Z,6.63
2023-03-18T07:11:55.597Z,6.85
2023-03-18T07:14:22.967Z,6.90
2023-03-18T07:16:49.968Z,6.45
2023-03-18T07:19:17.833Z,5.97
2023-03-18T07:21:45.985Z,6.40
2023-03-18T07:24:12.704Z,6.07
2023-03-18T07:26:39.199Z,6.28
2023-03-18T07:29:05.960Z,6.72
2023-03-18T07:31:32.604Z,7.22
2023-03-18T07:33:59.183Z,7.40
2023-03-18T07:36:26.687Z,6.68
2023-03-18T07:38:53.295Z,6.50
2023-03-18T07:41:19.730Z,6.13
2023-03-18T07:43:46.572Z,6.72
2023-03-18T07:46:13.105Z,5.82
2023-03-18T07:48:39.614Z,6.80
2023-03-18T07:51:06.153Z,6.93
2023-03-18T07:53:33.779Z,6.82
2023-03-18T07:56:00.691Z,6.60
2023-03-18T07:58:27.180Z,6.15
2023-03-18T08:00:54.068Z,6.22
2023-03-18T08:03:20.639Z,6.40
2023-03-18T08:05:47.144Z,6.50
2023-03-18T08:08:13.858Z,8.70
2023-03-18T08:10:40.529Z,7.80
2023-03-18T08:13:07.019Z,7.25
2023-03-18T08:15:33.906Z,7.45
2023-03-18T08:18:00.827Z,8.00
2023-03-18T08:20:27.579Z,7.03
2023-03-18T08:22:54.162Z,6.15
2023-03-18T08:25:22.902Z,6.38
2023-03-18T08:27:50.848Z,6.32
2023-03-18T08:30:17.536Z,6.38
2023-03-18T08:32:44.587Z,5.93
2023-03-18T08:35:12.672Z,6.30
2023-03-18T08:37:39.167Z,6.93
2023-03-18T08:40:06.596Z,6.22
2023-03-18T08:42:33.102Z,6.25
2023-03-18T08:44:59.681Z,6.15
2023-03-18T08:47:27.416Z,6.45
2023-03-18T08:49:53.924Z,5.68
2023-03-18T08:52:20.401Z,6.25
2023-03-18T08:54:47.836Z,5.32
2023-03-18T08:57:14.308Z,5.88
2023-03-18T08:59:40.825Z,5.88
2023-03-18T09:02:08.208Z,5.82
2023-03-18T09:04:34.604Z,5.88
2023-03-18T09:07:01.491Z,6.00
2023-03-18T09:09:41.041Z,5.80
2023-03-18T09:12:11.819Z,6.10
2023-03-18T09:14:38.837Z,5.90
2023-03-18T09:17:06.322Z,5.75
2023-03-18T09:19:32.850Z,5.40
2023-03-18T09:21:59.290Z,5.00
2023-03-18T09:24:25.821Z,5.70
2023-03-18T09:26:52.577Z,5.07
2023-03-18T09:29:20.572Z,5.75
2023-03-18T09:31:47.075Z,5.50
2023-03-18T09:34:14.498Z,5.10
2023-03-18T09:36:42.357Z,5.53
2023-03-18T09:39:10.057Z,5.07
2023-03-18T09:41:45.570Z,5.35
2023-03-18T09:44:21.554Z,6.15
2023-03-18T09:47:18.621Z,5.03
2023-03-18T09:50:21.152Z,5.22
2023-03-18T09:52:53.920Z,5.35
2023-03-18T09:55:40.243Z,5.13
2023-03-18T09:58:24.573Z,4.70
2023-03-18T10:00:56.008Z,5.03
2023-03-18T10:03:34.468Z,4.90
2023-03-18T10:06:07.970Z,5.07
2023-03-18T10:11:24.079Z,4.20
2023-03-18T10:22:54.901Z,4.68
2023-03-18T10:25:27.695Z,4.50
2023-03-18T10:28:18.239Z,5.03
2023-03-18T10:31:16.815Z,4.68
2023-03-18T10:33:43.656Z,4.72
2023-03-18T10:36:31.785Z,4.53
2023-03-18T10:39:01.144Z,4.78
2023-03-18T10:41:35.855Z,4.78
2023-03-18T10:44:22.565Z,5.03
2023-03-18T10:47:08.003Z,4.45
2023-03-18T10:49:42.846Z,4.68
2023-03-18T10:52:28.454Z,4.72
2023-03-18T10:54:54.909Z,4.97
2023-03-18T10:57:22.144Z,4.60
2023-03-18T10:59:52.119Z,5.15
2023-03-18T11:02:34.897Z,4.93
2023-03-18T11:05:25.034Z,4.95
2023-03-18T11:08:07.859Z,4.85
2023-03-18T11:10:43.650Z,4.85
2023-03-18T11:13:16.510Z,4.55
2023-03-18T11:15:51.313Z,4.18
2023-03-18T11:18:23.031Z,4.93
2023-03-18T11:21:01.291Z,4.25
2023-03-18T11:23:56.244Z,4.32
2023-03-18T11:26:25.178Z,4.90
2023-03-18T11:28:57.713Z,5.22
2023-03-18T11:31:24.701Z,4.75
2023-03-18T11:33:57.704Z,4.82
2023-03-18T11:36:26.827Z,4.95
2023-03-18T11:39:04.428Z,4.05
2023-03-18T11:41:31.038Z,3.95
2023-03-18T11:44:01.802Z,4.78
2023-03-18T11:46:37.575Z,4.30
2023-03-18T11:49:04.268Z,3.95
2023-03-18T11:51:42.898Z,4.65
2023-03-18T11:54:37.560Z,3.78
2023-03-18T11:57:22.854Z,3.92
2023-03-18T12:00:07.659Z,3.88
2023-03-18T12:02:55.182Z,4.30
2023-03-18T12:05:52.380Z,4.05
2023-03-18T12:08:31.678Z,3.67
2023-03-18T12:11:06.446Z,3.42
2023-03-18T12:13:37.456Z,3.83
2023-03-18T12:16:37.276Z,3.70
2023-03-18T12:19:25.137Z,4.13
2023-03-18T12:22:00.604Z,4.32
2023-03-18T12:24:46.974Z,4.40
2023-03-18T12:27:42.784Z,3.70
2023-03-18T12:30:25.145Z,3.55
2023-03-18T12:32:51.681Z,3.85
2023-03-18T12:35:45.836Z,3.88
2023-03-18T12:38:42.168Z,3.70
2023-03-18T12:41:43.990Z,3.97
2023-03-18T12:44:43.017Z,4.20
2023-03-18T12:47:15.281Z,4.22
2023-03-18T12:49:54.229Z,3.95
2023-03-18T12:52:38.008Z,3.72
2023-03-18T12:55:33.666Z,3.90
2023-03-18T12:58:14.248Z,4.20
2023-03-18T13:00:54.775Z,3.95
2023-03-18T13:03:26.361Z,4.35
2023-03-18T13:05:57.287Z,3.55
2023-03-18T13:08:41.906Z,3.70
2023-03-18T13:11:17.356Z,3.95
2023-03-18T13:13:50.056Z,4.32
2023-03-18T13:16:19.311Z,4.28
2023-03-18T13:18:51.650Z,4.00
2023-03-18T13:21:22.965Z,4.00
2023-03-18T13:23:52.069Z,3.90
2023-03-18T13:26:44.073Z,4.10
2023-03-18T13:29:18.350Z,4.53
2023-03-18T13:32:00.518Z,4.57
2023-03-18T13:34:47.980Z,5.05
2023-03-18T13:37:26.193Z,4.72
2023-03-18T13:40:14.229Z,4.65
2023-03-18T13:42:42.298Z,4.90
2023-03-18T13:45:08.954Z,4.47
2023-03-18T13:47:40.651Z,5.70
2023-03-18T13:50:25.834Z,5.00
2023-03-18T13:52:55.810Z,5.40
2023-03-18T13:55:29.693Z,4.90
2023-03-18T13:58:09.256Z,5.32
2023-03-18T14:00:40.518Z,5.32
2023-03-18T14:03:29.883Z,5.03
2023-03-18T14:06:16.345Z,4.82
2023-03-18T14:08:42.934Z,5.40
2023-03-18T14:11:16.657Z,2.90
2023-03-18T14:13:54.515Z,5.30
2023-03-18T14:16:37.711Z,5.43
2023-03-18T14:19:24.132Z,4.20
2023-03-18T14:22:06.979Z,4.30
2023-03-18T14:24:33.730Z,4.70
2023-03-18T14:27:06.649Z,4.05
2023-03-18T14:29:45.296Z,4.50
2023-03-18T14:32:38.610Z,3.97
2023-03-18T14:35:17.205Z,3.72
2023-03-18T14:38:17.502Z,3.55
2023-03-18T14:40:51.546Z,4.25
2023-03-18T14:43:54.491Z,3.70
2023-03-18T14:46:27.124Z,4.25
2023-03-18T14:48:54.073Z,4.25
2023-03-18T14:51:22.482Z,3.60
2023-03-18T14:54:20.819Z,3.58
2023-03-18T14:56:54.181Z,3.47
2023-03-18T14:59:25.583Z,4.15
2023-03-18T15:01:53.821Z,4.32
2023-03-18T15:04:25.938Z,3.63
2023-03-18T15:06:54.335Z,4.07
2023-03-18T15:09:27.372Z,3.53
2023-03-18T15:11:54.404Z,3.90
2023-03-18T15:14:31.699Z,3.47
2023-03-18T15:17:04.559Z,3.63
2023-03-18T15:19:32.634Z,2.53
2023-03-18T15:22:06.019Z,3.30
2023-03-18T15:24:32.986Z,3.40
2023-03-18T15:27:13.519Z,3.00
2023-03-18T15:29:53.171Z,2.92
2023-03-18T15:32:28.443Z,3.35
2023-03-18T15:35:06.468Z,3.28
2023-03-18T15:37:41.966Z,3.65
2023-03-18T15:40:23.491Z,3.55
2023-03-18T15:42:50.751Z,3.53
2023-03-18T15:45:21.242Z,3.35
2023-03-18T15:47:48.672Z,3.30
2023-03-18T15:50:28.334Z,2.75
2023-03-18T15:53:20.395Z,3.33
2023-03-18T15:55:53.983Z,3.22
2023-03-18T15:58:25.386Z,3.08
2023-03-18T16:00:53.187Z,3.10
2023-03-18T16:03:25.966Z,4.32
2023-03-18T16:05:53.569Z,3.33
2023-03-18T16:08:21.062Z,2.55
2023-03-18T16:10:50.863Z,2.80
2023-03-18T16:13:21.648Z,3.03
2023-03-18T16:15:48.411Z,3.30
2023-03-18T16:18:16.197Z,2.80
2023-03-18T16:20:45.539Z,3.60
2023-03-18T16:23:15.136Z,3.17
2023-03-18T16:25:43.597Z,3.45
2023-03-18T16:28:17.918Z,2.97
2023-03-18T16:30:44.905Z,3.30
2023-03-18T16:33:14.499Z,3.15
2023-03-18T16:35:41.286Z,3.08
2023-03-18T16:38:16.603Z,3.40
2023-03-18T16:40:44.467Z,3.28
2023-03-18T16:43:27.300Z,3.97
2023-03-18T16:45:58.301Z,4.00
2023-03-18T16:48:26.970Z,2.88
2023-03-18T16:50:55.905Z,3.40
2023-03-18T16:53:29.697Z,3.20
2023-03-18T16:56:04.300Z,3.60
2023-03-18T16:58:35.052Z,3.95
2023-03-18T17:01:04.669Z,3.90
2023-03-18T17:03:31.596Z,3.95
2023-03-18T17:05:58.344Z,3.30
2023-03-18T17:08:24.823Z,3.45
2023-03-18T17:10:55.397Z,3.35
2023-03-18T17:13:25.895Z,3.67
2023-03-18T17:15:52.916Z,3.00
2023-03-18T17:18:21.736Z,3.78
2023-03-18T17:20:48.965Z,3.53
2023-03-18T17:23:27.054Z,4.10
2023-03-18T17:26:02.672Z,3.55
2023-03-18T17:28:37.336Z,4.20
2023-03-18T17:31:04.481Z,4.95
2023-03-18T17:33:33.842Z,5.20
2023-03-18T17:36:01.873Z,4.57
2023-03-18T17:38:30.597Z,4.47
2023-03-18T17:40:57.853Z,4.95
2023-03-18T17:43:27.664Z,5.55
2023-03-18T17:45:56.541Z,4.57
2023-03-18T17:48:25.745Z,4.80
2023-03-18T17:50:55.718Z,4.32
2023-03-18T17:53:22.092Z,5.30
2023-03-18T17:55:48.767Z,5.00
2023-03-18T17:58:20.286Z,4.65
2023-03-18T18:00:48.126Z,5.72
2023-03-18T18:03:21.960Z,5.43
2023-03-18T18:05:48.676Z,5.40
2023-03-18T18:08:17.610Z,5.63
2023-03-18T18:10:45.313Z,4.50
2023-03-18T18:13:20.660Z,4.55
2023-03-18T18:15:48.445Z,5.18
2023-03-18T18:18:23.215Z,5.85
2023-03-18T18:20:54.745Z,4.63
2023-03-18T18:23:33.333Z,5.38
2023-03-18T18:26:03.142Z,6.03
2023-03-18T18:28:33.011Z,5.28
2023-03-18T18:31:00.971Z,5.22
2023-03-18T18:33:27.637Z,5.45
2023-03-18T18:35:54.417Z,5.85
2023-03-18T18:38:21.036Z,6.72
2023-03-18T18:40:49.100Z,5.78
2023-03-18T18:43:15.654Z,5.25
2023-03-18T18:45:42.241Z,5.65
2023-03-18T18:48:14.723Z,5.38
2023-03-18T18:50:42.609Z,5.00
2023-03-18T18:53:21.463Z,4.80
2023-03-18T18:55:49.298Z,5.10
2023-03-18T18:58:20.165Z,4.60
2023-03-18T19:00:49.338Z,5.20
2023-03-18T19:03:19.184Z,4.75
2023-03-18T19:05:47.071Z,5.88
2023-03-18T19:08:25.045Z,6.22
2023-03-18T19:10:53.425Z,5.78
2023-03-18T19:13:20.699Z,6.53
2023-03-18T19:15:48.594Z,6.40
2023-03-18T19:18:21.078Z,6.18
2023-03-18T19:20:48.441Z,6.55
2023-03-18T19:23:16.761Z,5.57
2023-03-18T19:25:43.938Z,5.78
2023-03-18T19:28:20.912Z,6.50
2023-03-18T19:30:47.965Z,7.15
2023-03-18T19:33:16.508Z,6.20
2023-03-18T19:35:43.867Z,6.85
2023-03-18T19:38:21.421Z,6.72
2023-03-18T19:40:49.565Z,6.80
2023-03-18T19:43:18.325Z,7.78
2023-03-18T19:45:46.837Z,5.70
2023-03-18T19:48:23.886Z,5.30
2023-03-18T19:50:51.258Z,6.60
2023-03-18T19:53:18.641Z,6.30
2023-03-18T19:55:47.264Z,6.05
2023-03-18T19:58:23.111Z,5.95
2023-03-18T20:00:49.666Z,5.95
2023-03-18T20:03:18.440Z,6.68
2023-03-18T20:05:45.574Z,6.32
2023-03-18T20:08:12.256Z,6.78
2023-03-18T20:10:41.111Z,6.90
2023-03-18T20:13:14.603Z,7.15
2023-03-18T20:15:41.197Z,6.78
2023-03-18T20:18:16.916Z,7.10
2023-03-18T20:20:47.201Z,7.45
2023-03-18T20:23:22.317Z,6.63
2023-03-18T20:25:51.258Z,7.55
2023-03-18T20:28:23.290Z,8.00
2023-03-18T20:30:52.110Z,8.32
2023-03-18T20:33:20.024Z,8.32
2023-03-18T20:35:48.208Z,8.45
2023-03-18T20:38:37.608Z,8.30
2023-03-18T20:41:05.688Z,8.20
2023-03-18T20:43:32.585Z,8.30
2023-03-18T20:46:01.127Z,8.48
2023-03-18T20:48:28.279Z,8.15
2023-03-18T20:50:55.263Z,7.97
2023-03-18T20:53:31.617Z,7.50
2023-03-18T20:55:58.178Z,8.10
2023-03-18T20:58:29.022Z,7.68
2023-03-18T21:00:55.654Z,7.93
2023-03-18T21:03:30.908Z,8.18
2023-03-18T21:06:00.150Z,7.85
2023-03-18T21:08:27.731Z,7.88
2023-03-18T21:10:55.153Z,7.50
2023-03-18T21:13:32.730Z,7.50
2023-03-18T21:16:00.675Z,8.65
2023-03-18T21:18:27.699Z,7.93
2023-03-18T21:20:55.351Z,7.47
2023-03-18T21:23:23.391Z,8.07
2023-03-18T21:25:51.148Z,8.63
2023-03-18T21:28:19.742Z,8.25
2023-03-18T21:30:52.130Z,8.20
2023-03-18T21:33:21.730Z,8.13
2023-03-18T21:35:50.242Z,8.50
2023-03-18T21:38:17.275Z,8.57
2023-03-18T21:40:44.043Z,7.30
2023-03-18T21:43:33.613Z,8.55
2023-03-18T21:46:01.784Z,8.00
2023-03-18T21:48:28.986Z,8.18
2023-03-18T21:50:55.671Z,7.80
2023-03-18T21:53:24.286Z,7.97
2023-03-18T21:55:51.929Z,8.10
2023-03-18T21:58:20.857Z,7.80
2023-03-18T22:00:54.908Z,7.38
2023-03-18T22:03:23.544Z,7.80
2023-03-18T22:05:52.611Z,6.82
2023-03-18T22:08:20.574Z,8.30
2023-03-18T22:10:48.959Z,7.97
2023-03-18T22:13:21.366Z,7.65
2023-03-18T22:15:49.598Z,8.45
2023-03-18T22:18:16.613Z,7.80
2023-03-18T22:20:45.365Z,8.38
2023-03-18T22:23:12.849Z,7.90
2023-03-18T22:25:41.172Z,8.35
2023-03-18T22:28:07.913Z,8.02
2023-03-18T22:30:34.846Z,8.30
2023-03-18T22:33:03.706Z,7.78
2023-03-18T22:35:30.402Z,7.75
